sensor_id;sensor_type;location;lat;lon;timestamp;temperature;humidity
21169;DHT22;10742;51.816;8.662;2022-10-13T00:01:21;12.80;89.50
21169;DHT22;10742;51.816;8.662;2022-10-13T00:04:24;12.70;89.50
21169;DHT22;10742;51.816;8.662;2022-10-13T00:07:26;12.70;90.10
21169;DHT22;10742;51.816;8.662;2022-10-13T00:10:28;12.60;89.40
21169;DHT22;10742;51.816;8.662;2022-10-13T00:13:31;12.60;89.40
21169;DHT22;10742;51.816;8.662;2022-10-13T00:16:33;12.60;89.50
21169;DHT22;10742;51.816;8.662;2022-10-13T00:19:35;12.50;89.40
21169;DHT22;10742;51.816;8.662;2022-10-13T00:22:38;12.50;89.40
21169;DHT22;10742;51.816;8.662;2022-10-13T00:25:46;12.40;89.40
21169;DHT22;10742;51.816;8.662;2022-10-13T00:28:49;12.40;89.80
21169;DHT22;10742;51.816;8.662;2022-10-13T00:31:53;12.40;89.70
21169;DHT22;10742;51.816;8.662;2022-10-13T00:34:55;12.30;89.70
21169;DHT22;10742;51.816;8.662;2022-10-13T00:37:58;12.30;89.70
21169;DHT22;10742;51.816;8.662;2022-10-13T00:41:05;12.30;89.70
21169;DHT22;10742;51.816;8.662;2022-10-13T00:47:52;12.20;90.10
21169;DHT22;10742;51.816;8.662;2022-10-13T00:50:55;12.20;90.00
21169;DHT22;10742;51.816;8.662;2022-10-13T00:54:00;12.20;89.90
21169;DHT22;10742;51.816;8.662;2022-10-13T00:57:05;12.10;90.00
21169;DHT22;10742;51.816;8.662;2022-10-13T01:00:09;12.10;90.40
21169;DHT22;10742;51.816;8.662;2022-10-13T01:03:13;12.10;90.00
21169;DHT22;10742;51.816;8.662;2022-10-13T01:06:16;12.10;90.10
21169;DHT22;10742;51.816;8.662;2022-10-13T01:09:23;12.10;90.20
21169;DHT22;10742;51.816;8.662;2022-10-13T01:15:46;12.00;90.30
21169;DHT22;10742;51.816;8.662;2022-10-13T01:22:56;12.00;90.50
21169;DHT22;10742;51.816;8.662;2022-10-13T01:39:42;12.00;91.10
21169;DHT22;10742;51.816;8.662;2022-10-13T01:46:27;12.00;90.90
21169;DHT22;10742;51.816;8.662;2022-10-13T01:49:33;12.00;90.80
21169;DHT22;10742;51.816;8.662;2022-10-13T01:52:37;12.00;90.80
21169;DHT22;10742;51.816;8.662;2022-10-13T01:55:50;12.00;90.80
21169;DHT22;10742;51.816;8.662;2022-10-13T01:58:54;12.00;91.00
21169;DHT22;10742;51.816;8.662;2022-10-13T02:02:08;12.00;90.90
21169;DHT22;10742;51.816;8.662;2022-10-13T02:12:00;12.00;91.60
21169;DHT22;10742;51.816;8.662;2022-10-13T02:15:10;12.00;91.40
21169;DHT22;10742;51.816;8.662;2022-10-13T02:18:17;12.00;91.30
21169;DHT22;10742;51.816;8.662;2022-10-13T02:21:21;12.10;91.40
21169;DHT22;10742;51.816;8.662;2022-10-13T02:24:25;12.10;91.40
21169;DHT22;10742;51.816;8.662;2022-10-13T02:27:27;12.10;91.60
21169;DHT22;10742;51.816;8.662;2022-10-13T02:30:31;12.10;91.70
21169;DHT22;10742;51.816;8.662;2022-10-13T02:33:34;12.10;91.70
21169;DHT22;10742;51.816;8.662;2022-10-13T02:36:36;12.20;91.70
21169;DHT22;10742;51.816;8.662;2022-10-13T02:39:39;12.20;91.70
21169;DHT22;10742;51.816;8.662;2022-10-13T02:42:45;12.20;91.70
21169;DHT22;10742;51.816;8.662;2022-10-13T02:45:47;12.20;91.70
21169;DHT22;10742;51.816;8.662;2022-10-13T02:48:50;12.20;91.60
21169;DHT22;10742;51.816;8.662;2022-10-13T02:51:52;12.20;91.70
21169;DHT22;10742;51.816;8.662;2022-10-13T02:54:54;12.20;91.70
21169;DHT22;10742;51.816;8.662;2022-10-13T02:58:16;12.20;91.70
21169;DHT22;10742;51.816;8.662;2022-10-13T03:01:37;12.20;91.70
21169;DHT22;10742;51.816;8.662;2022-10-13T03:05:01;12.30;91.80
21169;DHT22;10742;51.816;8.662;2022-10-13T03:08:22;12.30;91.80
21169;DHT22;10742;51.816;8.662;2022-10-13T03:11:44;12.30;91.90
21169;DHT22;10742;51.816;8.662;2022-10-13T03:14:46;12.30;91.90
21169;DHT22;10742;51.816;8.662;2022-10-13T03:17:49;12.30;92.00
21169;DHT22;10742;51.816;8.662;2022-10-13T03:21:03;12.30;92.00
21169;DHT22;10742;51.816;8.662;2022-10-13T03:24:06;12.30;92.40
21169;DHT22;10742;51.816;8.662;2022-10-13T03:27:08;12.30;92.10
21169;DHT22;10742;51.816;8.662;2022-10-13T03:30:11;12.30;92.20
21169;DHT22;10742;51.816;8.662;2022-10-13T03:33:14;12.40;92.20
21169;DHT22;10742;51.816;8.662;2022-10-13T03:36:17;12.40;92.10
21169;DHT22;10742;51.816;8.662;2022-10-13T03:39:20;12.40;92.10
21169;DHT22;10742;51.816;8.662;2022-10-13T03:42:23;12.40;92.10
21169;DHT22;10742;51.816;8.662;2022-10-13T03:45:25;12.40;92.20
21169;DHT22;10742;51.816;8.662;2022-10-13T03:48:28;12.50;92.20
21169;DHT22;10742;51.816;8.662;2022-10-13T03:51:31;12.50;92.20
21169;DHT22;10742;51.816;8.662;2022-10-13T03:54:34;12.50;92.20
21169;DHT22;10742;51.816;8.662;2022-10-13T03:57:36;12.50;92.20
21169;DHT22;10742;51.816;8.662;2022-10-13T04:00:39;12.50;92.20
21169;DHT22;10742;51.816;8.662;2022-10-13T04:03:41;12.50;92.20
21169;DHT22;10742;51.816;8.662;2022-10-13T04:06:43;12.50;92.20
21169;DHT22;10742;51.816;8.662;2022-10-13T04:09:46;12.50;92.30
21169;DHT22;10742;51.816;8.662;2022-10-13T04:12:48;12.50;92.30
21169;DHT22;10742;51.816;8.662;2022-10-13T04:15:50;12.50;92.30
21169;DHT22;10742;51.816;8.662;2022-10-13T04:18:56;12.50;92.30
21169;DHT22;10742;51.816;8.662;2022-10-13T04:21:58;12.50;92.50
21169;DHT22;10742;51.816;8.662;2022-10-13T04:25:01;12.50;92.40
21169;DHT22;10742;51.816;8.662;2022-10-13T04:28:05;12.50;92.50
21169;DHT22;10742;51.816;8.662;2022-10-13T04:31:10;12.50;92.60
21169;DHT22;10742;51.816;8.662;2022-10-13T04:34:13;12.50;92.60
21169;DHT22;10742;51.816;8.662;2022-10-13T04:37:16;12.60;92.60
21169;DHT22;10742;51.816;8.662;2022-10-13T04:40:18;12.60;92.70
21169;DHT22;10742;51.816;8.662;2022-10-13T04:43:20;12.60;92.70
21169;DHT22;10742;51.816;8.662;2022-10-13T04:46:25;12.60;92.80
21169;DHT22;10742;51.816;8.662;2022-10-13T04:49:28;12.70;93.00
21169;DHT22;10742;51.816;8.662;2022-10-13T04:52:30;12.70;92.90
21169;DHT22;10742;51.816;8.662;2022-10-13T04:55:36;12.70;92.90
21169;DHT22;10742;51.816;8.662;2022-10-13T04:58:40;12.70;93.10
21169;DHT22;10742;51.816;8.662;2022-10-13T05:01:42;12.80;93.10
21169;DHT22;10742;51.816;8.662;2022-10-13T05:04:47;12.80;93.10
21169;DHT22;10742;51.816;8.662;2022-10-13T05:07:49;12.80;93.10
21169;DHT22;10742;51.816;8.662;2022-10-13T05:10:57;12.90;93.20
21169;DHT22;10742;51.816;8.662;2022-10-13T05:14:00;12.80;93.40
21169;DHT22;10742;51.816;8.662;2022-10-13T05:17:02;12.90;93.30
21169;DHT22;10742;51.816;8.662;2022-10-13T05:20:05;12.90;93.30
21169;DHT22;10742;51.816;8.662;2022-10-13T05:23:08;13.00;93.40
21169;DHT22;10742;51.816;8.662;2022-10-13T05:26:14;13.00;93.30
21169;DHT22;10742;51.816;8.662;2022-10-13T05:29:16;13.00;93.50
21169;DHT22;10742;51.816;8.662;2022-10-13T05:32:19;13.10;93.40
21169;DHT22;10742;51.816;8.662;2022-10-13T05:35:21;13.10;93.40
21169;DHT22;10742;51.816;8.662;2022-10-13T05:38:24;13.10;93.40
21169;DHT22;10742;51.816;8.662;2022-10-13T05:41:28;13.20;93.50
21169;DHT22;10742;51.816;8.662;2022-10-13T05:44:31;13.20;93.60
21169;DHT22;10742;51.816;8.662;2022-10-13T05:47:34;13.20;93.60
21169;DHT22;10742;51.816;8.662;2022-10-13T05:50:36;13.30;93.60
21169;DHT22;10742;51.816;8.662;2022-10-13T05:53:41;13.30;93.70
21169;DHT22;10742;51.816;8.662;2022-10-13T05:57:03;13.30;93.80
21169;DHT22;10742;51.816;8.662;2022-10-13T06:00:09;13.40;94.00
21169;DHT22;10742;51.816;8.662;2022-10-13T06:03:16;13.40;93.70
21169;DHT22;10742;51.816;8.662;2022-10-13T06:06:20;13.50;93.80
21169;DHT22;10742;51.816;8.662;2022-10-13T06:09:22;13.50;93.70
21169;DHT22;10742;51.816;8.662;2022-10-13T06:12:25;13.50;93.70
21169;DHT22;10742;51.816;8.662;2022-10-13T06:15:27;13.60;93.80
21169;DHT22;10742;51.816;8.662;2022-10-13T06:18:30;13.60;93.80
21169;DHT22;10742;51.816;8.662;2022-10-13T06:21:35;13.60;93.80
21169;DHT22;10742;51.816;8.662;2022-10-13T06:24:38;13.70;93.90
21169;DHT22;10742;51.816;8.662;2022-10-13T06:27:42;13.70;93.80
21169;DHT22;10742;51.816;8.662;2022-10-13T06:30:46;13.80;93.80
21169;DHT22;10742;51.816;8.662;2022-10-13T06:33:57;13.80;93.90
21169;DHT22;10742;51.816;8.662;2022-10-13T06:36:59;13.80;93.90
21169;DHT22;10742;51.816;8.662;2022-10-13T06:40:01;13.90;93.90
21169;DHT22;10742;51.816;8.662;2022-10-13T06:43:04;13.90;93.80
21169;DHT22;10742;51.816;8.662;2022-10-13T06:46:14;14.00;93.90
21169;DHT22;10742;51.816;8.662;2022-10-13T06:49:16;14.00;93.90
21169;DHT22;10742;51.816;8.662;2022-10-13T06:52:19;14.00;93.90
21169;DHT22;10742;51.816;8.662;2022-10-13T06:55:21;14.10;93.90
21169;DHT22;10742;51.816;8.662;2022-10-13T06:58:24;14.10;93.90
21169;DHT22;10742;51.816;8.662;2022-10-13T07:01:26;14.10;93.90
21169;DHT22;10742;51.816;8.662;2022-10-13T07:04:28;14.20;94.00
21169;DHT22;10742;51.816;8.662;2022-10-13T07:07:33;14.20;94.00
21169;DHT22;10742;51.816;8.662;2022-10-13T07:10:39;14.20;94.00
21169;DHT22;10742;51.816;8.662;2022-10-13T07:13:42;14.30;94.10
21169;DHT22;10742;51.816;8.662;2022-10-13T07:16:47;14.30;94.00
21169;DHT22;10742;51.816;8.662;2022-10-13T07:19:50;14.40;94.00
21169;DHT22;10742;51.816;8.662;2022-10-13T07:22:54;14.40;94.00
21169;DHT22;10742;51.816;8.662;2022-10-13T07:25:59;14.40;94.10
21169;DHT22;10742;51.816;8.662;2022-10-13T07:29:02;14.50;94.10
21169;DHT22;10742;51.816;8.662;2022-10-13T07:32:05;14.50;94.10
21169;DHT22;10742;51.816;8.662;2022-10-13T07:35:10;14.60;94.20
21169;DHT22;10742;51.816;8.662;2022-10-13T07:38:12;14.60;94.20
21169;DHT22;10742;51.816;8.662;2022-10-13T07:41:16;14.70;94.20
21169;DHT22;10742;51.816;8.662;2022-10-13T07:44:19;14.70;94.20
21169;DHT22;10742;51.816;8.662;2022-10-13T07:47:21;14.80;94.20
21169;DHT22;10742;51.816;8.662;2022-10-13T07:50:24;14.90;94.30
21169;DHT22;10742;51.816;8.662;2022-10-13T07:53:26;15.00;94.30
21169;DHT22;10742;51.816;8.662;2022-10-13T07:56:29;15.10;94.40
21169;DHT22;10742;51.816;8.662;2022-10-13T07:59:32;15.10;94.40
21169;DHT22;10742;51.816;8.662;2022-10-13T08:02:35;15.20;94.40
21169;DHT22;10742;51.816;8.662;2022-10-13T08:05:38;15.30;94.40
21169;DHT22;10742;51.816;8.662;2022-10-13T08:08:40;15.40;94.40
21169;DHT22;10742;51.816;8.662;2022-10-13T08:11:46;15.50;94.30
21169;DHT22;10742;51.816;8.662;2022-10-13T08:14:51;15.60;94.40
21169;DHT22;10742;51.816;8.662;2022-10-13T08:17:53;15.70;94.40
21169;DHT22;10742;51.816;8.662;2022-10-13T08:21:19;15.80;94.30
21169;DHT22;10742;51.816;8.662;2022-10-13T08:25:02;15.90;94.30
21169;DHT22;10742;51.816;8.662;2022-10-13T08:28:26;16.00;94.20
21169;DHT22;10742;51.816;8.662;2022-10-13T08:31:49;16.20;94.30
21169;DHT22;10742;51.816;8.662;2022-10-13T08:35:11;16.30;94.20
21169;DHT22;10742;51.816;8.662;2022-10-13T08:38:34;16.40;94.00
21169;DHT22;10742;51.816;8.662;2022-10-13T08:41:56;16.50;93.90
21169;DHT22;10742;51.816;8.662;2022-10-13T08:45:25;16.60;93.80
21169;DHT22;10742;51.816;8.662;2022-10-13T08:48:41;16.70;93.70
21169;DHT22;10742;51.816;8.662;2022-10-13T08:51:43;16.90;93.70
21169;DHT22;10742;51.816;8.662;2022-10-13T08:54:46;16.90;93.70
21169;DHT22;10742;51.816;8.662;2022-10-13T08:57:49;17.00;93.70
21169;DHT22;10742;51.816;8.662;2022-10-13T09:01:13;17.10;93.70
21169;DHT22;10742;51.816;8.662;2022-10-13T09:04:31;17.20;93.60
21169;DHT22;10742;51.816;8.662;2022-10-13T09:07:35;17.30;93.50
21169;DHT22;10742;51.816;8.662;2022-10-13T09:10:47;17.50;93.50
21169;DHT22;10742;51.816;8.662;2022-10-13T09:13:54;17.60;93.50
21169;DHT22;10742;51.816;8.662;2022-10-13T09:17:19;17.80;93.50
21169;DHT22;10742;51.816;8.662;2022-10-13T09:20:25;17.90;93.30
21169;DHT22;10742;51.816;8.662;2022-10-13T09:23:30;18.10;93.20
21169;DHT22;10742;51.816;8.662;2022-10-13T09:26:36;18.20;93.10
21169;DHT22;10742;51.816;8.662;2022-10-13T09:29:40;18.40;92.80
21169;DHT22;10742;51.816;8.662;2022-10-13T09:32:43;18.50;92.60
21169;DHT22;10742;51.816;8.662;2022-10-13T09:36:06;18.60;92.60
21169;DHT22;10742;51.816;8.662;2022-10-13T09:39:14;18.70;92.20
21169;DHT22;10742;51.816;8.662;2022-10-13T09:42:21;18.80;92.60
21169;DHT22;10742;51.816;8.662;2022-10-13T09:45:26;18.90;92.30
21169;DHT22;10742;51.816;8.662;2022-10-13T09:48:34;19.10;92.30
21169;DHT22;10742;51.816;8.662;2022-10-13T09:51:39;19.20;92.10
21169;DHT22;10742;51.816;8.662;2022-10-13T09:54:57;19.30;92.10
21169;DHT22;10742;51.816;8.662;2022-10-13T09:58:23;19.40;91.80
21169;DHT22;10742;51.816;8.662;2022-10-13T10:01:30;19.50;91.40
21169;DHT22;10742;51.816;8.662;2022-10-13T10:04:37;19.60;91.40
21169;DHT22;10742;51.816;8.662;2022-10-13T10:07:44;19.70;91.20
21169;DHT22;10742;51.816;8.662;2022-10-13T10:10:46;19.80;91.40
21169;DHT22;10742;51.816;8.662;2022-10-13T10:13:48;19.90;91.20
21169;DHT22;10742;51.816;8.662;2022-10-13T10:26:34;20.30;90.70
21169;DHT22;10742;51.816;8.662;2022-10-13T10:29:48;20.40;90.60
21169;DHT22;10742;51.816;8.662;2022-10-13T10:33:03;20.50;90.00
21169;DHT22;10742;51.816;8.662;2022-10-13T10:36:37;20.60;88.70
21169;DHT22;10742;51.816;8.662;2022-10-13T10:46:50;20.70;88.20
21169;DHT22;10742;51.816;8.662;2022-10-13T10:49:59;20.80;88.20
21169;DHT22;10742;51.816;8.662;2022-10-13T10:56:48;21.00;87.80
21169;DHT22;10742;51.816;8.662;2022-10-13T11:00:03;21.10;86.90
21169;DHT22;10742;51.816;8.662;2022-10-13T11:06:36;21.40;86.00
21169;DHT22;10742;51.816;8.662;2022-10-13T11:12:47;21.50;86.00
21169;DHT22;10742;51.816;8.662;2022-10-13T11:15:49;21.60;85.50
21169;DHT22;10742;51.816;8.662;2022-10-13T11:19:31;21.70;85.50
21169;DHT22;10742;51.816;8.662;2022-10-13T11:22:34;21.70;84.20
21169;DHT22;10742;51.816;8.662;2022-10-13T11:25:37;21.80;85.30
21169;DHT22;10742;51.816;8.662;2022-10-13T11:28:47;21.90;84.90
21169;DHT22;10742;51.816;8.662;2022-10-13T11:31:52;22.00;84.10
21169;DHT22;10742;51.816;8.662;2022-10-13T11:38:27;22.20;83.50
21169;DHT22;10742;51.816;8.662;2022-10-13T11:41:40;22.30;82.50
21169;DHT22;10742;51.816;8.662;2022-10-13T11:45:03;22.40;82.50
21169;DHT22;10742;51.816;8.662;2022-10-13T11:51:29;22.60;82.60
21169;DHT22;10742;51.816;8.662;2022-10-13T11:54:36;22.70;80.60
21169;DHT22;10742;51.816;8.662;2022-10-13T11:57:40;22.80;81.90
21169;DHT22;10742;51.816;8.662;2022-10-13T12:01:03;22.90;81.60
21169;DHT22;10742;51.816;8.662;2022-10-13T12:04:14;23.00;80.10
21169;DHT22;10742;51.816;8.662;2022-10-13T12:07:16;23.00;80.00
21169;DHT22;10742;51.816;8.662;2022-10-13T12:10:29;23.10;80.00
21169;DHT22;10742;51.816;8.662;2022-10-13T12:13:35;23.10;78.90
21169;DHT22;10742;51.816;8.662;2022-10-13T12:16:54;23.20;78.30
21169;DHT22;10742;51.816;8.662;2022-10-13T12:20:21;23.10;77.20
21169;DHT22;10742;51.816;8.662;2022-10-13T12:23:25;23.20;76.70
21169;DHT22;10742;51.816;8.662;2022-10-13T12:26:27;23.20;77.70
21169;DHT22;10742;51.816;8.662;2022-10-13T12:29:30;23.30;77.60
21169;DHT22;10742;51.816;8.662;2022-10-13T12:32:36;23.30;77.30
21169;DHT22;10742;51.816;8.662;2022-10-13T12:35:38;23.40;76.90
21169;DHT22;10742;51.816;8.662;2022-10-13T12:38:44;23.40;76.70
21169;DHT22;10742;51.816;8.662;2022-10-13T12:41:48;23.40;75.90
21169;DHT22;10742;51.816;8.662;2022-10-13T12:44:51;23.40;76.30
21169;DHT22;10742;51.816;8.662;2022-10-13T12:47:54;23.40;76.00
21169;DHT22;10742;51.816;8.662;2022-10-13T12:51:13;23.50;75.60
21169;DHT22;10742;51.816;8.662;2022-10-13T12:54:21;23.40;74.40
21169;DHT22;10742;51.816;8.662;2022-10-13T12:57:31;23.40;75.30
21169;DHT22;10742;51.816;8.662;2022-10-13T13:00:39;23.40;74.50
21169;DHT22;10742;51.816;8.662;2022-10-13T13:03:43;23.40;75.20
21169;DHT22;10742;51.816;8.662;2022-10-13T13:06:52;23.40;75.00
21169;DHT22;10742;51.816;8.662;2022-10-13T13:10:14;23.40;73.90
21169;DHT22;10742;51.816;8.662;2022-10-13T13:13:21;23.40;73.70
21169;DHT22;10742;51.816;8.662;2022-10-13T13:16:24;23.40;74.20
21169;DHT22;10742;51.816;8.662;2022-10-13T13:19:30;23.30;74.60
21169;DHT22;10742;51.816;8.662;2022-10-13T13:22:33;23.30;73.90
21169;DHT22;10742;51.816;8.662;2022-10-13T13:25:35;23.30;74.40
21169;DHT22;10742;51.816;8.662;2022-10-13T13:28:41;23.30;74.20
21169;DHT22;10742;51.816;8.662;2022-10-13T13:31:45;23.20;73.90
21169;DHT22;10742;51.816;8.662;2022-10-13T13:34:48;23.20;74.20
21169;DHT22;10742;51.816;8.662;2022-10-13T13:37:51;23.20;74.20
21169;DHT22;10742;51.816;8.662;2022-10-13T13:40:54;23.20;74.40
21169;DHT22;10742;51.816;8.662;2022-10-13T13:43:57;23.20;74.30
21169;DHT22;10742;51.816;8.662;2022-10-13T13:46:59;23.20;74.00
21169;DHT22;10742;51.816;8.662;2022-10-13T13:50:01;23.10;73.80
21169;DHT22;10742;51.816;8.662;2022-10-13T13:53:04;23.10;73.80
21169;DHT22;10742;51.816;8.662;2022-10-13T13:56:11;23.10;73.80
21169;DHT22;10742;51.816;8.662;2022-10-13T13:59:16;23.00;73.30
21169;DHT22;10742;51.816;8.662;2022-10-13T14:02:20;23.00;74.10
21169;DHT22;10742;51.816;8.662;2022-10-13T14:05:23;22.90;74.10
21169;DHT22;10742;51.816;8.662;2022-10-13T14:08:28;22.90;74.30
21169;DHT22;10742;51.816;8.662;2022-10-13T14:11:31;22.90;74.40
21169;DHT22;10742;51.816;8.662;2022-10-13T14:14:33;22.90;74.30
21169;DHT22;10742;51.816;8.662;2022-10-13T14:17:36;22.80;74.40
21169;DHT22;10742;51.816;8.662;2022-10-13T14:20:40;22.70;74.50
21169;DHT22;10742;51.816;8.662;2022-10-13T14:23:43;22.70;74.50
21169;DHT22;10742;51.816;8.662;2022-10-13T14:26:48;22.70;74.70
21169;DHT22;10742;51.816;8.662;2022-10-13T14:29:50;22.60;74.70
21169;DHT22;10742;51.816;8.662;2022-10-13T14:33:12;22.60;74.80
21169;DHT22;10742;51.816;8.662;2022-10-13T14:36:33;22.60;75.10
21169;DHT22;10742;51.816;8.662;2022-10-13T14:39:54;22.50;75.20
21169;DHT22;10742;51.816;8.662;2022-10-13T14:43:15;22.50;75.50
21169;DHT22;10742;51.816;8.662;2022-10-13T14:46:37;22.40;75.60
21169;DHT22;10742;51.816;8.662;2022-10-13T14:49:58;22.40;75.70
21169;DHT22;10742;51.816;8.662;2022-10-13T14:53:23;22.30;75.70
21169;DHT22;10742;51.816;8.662;2022-10-13T14:56:46;22.20;75.70
21169;DHT22;10742;51.816;8.662;2022-10-13T15:00:08;22.20;75.80
21169;DHT22;10742;51.816;8.662;2022-10-13T15:03:31;22.10;75.90
21169;DHT22;10742;51.816;8.662;2022-10-13T15:06:52;22.00;76.30
21169;DHT22;10742;51.816;8.662;2022-10-13T15:10:14;22.00;76.90
21169;DHT22;10742;51.816;8.662;2022-10-13T15:13:36;21.90;77.30
21169;DHT22;10742;51.816;8.662;2022-10-13T15:16:57;21.80;77.90
21169;DHT22;10742;51.816;8.662;2022-10-13T15:20:18;21.70;78.40
21169;DHT22;10742;51.816;8.662;2022-10-13T15:23:40;21.60;78.10
21169;DHT22;10742;51.816;8.662;2022-10-13T15:27:01;21.50;78.20
21169;DHT22;10742;51.816;8.662;2022-10-13T15:30:22;21.30;78.30
21169;DHT22;10742;51.816;8.662;2022-10-13T15:33:45;21.20;78.60
21169;DHT22;10742;51.816;8.662;2022-10-13T15:36:48;21.10;78.80
21169;DHT22;10742;51.816;8.662;2022-10-13T15:39:50;21.00;79.10
21169;DHT22;10742;51.816;8.662;2022-10-13T15:42:55;20.90;79.60
21169;DHT22;10742;51.816;8.662;2022-10-13T15:46:04;20.80;80.80
21169;DHT22;10742;51.816;8.662;2022-10-13T15:49:06;20.70;81.50
21169;DHT22;10742;51.816;8.662;2022-10-13T15:52:09;20.70;81.40
21169;DHT22;10742;51.816;8.662;2022-10-13T15:55:12;20.60;81.60
21169;DHT22;10742;51.816;8.662;2022-10-13T15:58:34;20.50;81.80
21169;DHT22;10742;51.816;8.662;2022-10-13T16:01:55;20.50;82.30
21169;DHT22;10742;51.816;8.662;2022-10-13T16:05:17;20.40;82.20
21169;DHT22;10742;51.816;8.662;2022-10-13T16:08:40;20.40;83.00
21169;DHT22;10742;51.816;8.662;2022-10-13T16:12:03;20.30;83.00
21169;DHT22;10742;51.816;8.662;2022-10-13T16:15:24;20.30;83.40
21169;DHT22;10742;51.816;8.662;2022-10-13T16:18:45;20.20;83.70
21169;DHT22;10742;51.816;8.662;2022-10-13T16:22:07;20.20;84.00
21169;DHT22;10742;51.816;8.662;2022-10-13T16:25:29;20.20;84.40
21169;DHT22;10742;51.816;8.662;2022-10-13T16:28:55;20.10;84.50
21169;DHT22;10742;51.816;8.662;2022-10-13T16:32:19;20.10;85.00
21169;DHT22;10742;51.816;8.662;2022-10-13T16:35:40;20.00;84.60
21169;DHT22;10742;51.816;8.662;2022-10-13T16:39:02;20.00;84.80
21169;DHT22;10742;51.816;8.662;2022-10-13T16:42:23;19.90;85.30
21169;DHT22;10742;51.816;8.662;2022-10-13T16:45:57;19.90;85.30
21169;DHT22;10742;51.816;8.662;2022-10-13T16:49:20;19.90;86.50
21169;DHT22;10742;51.816;8.662;2022-10-13T16:52:41;19.80;85.80
21169;DHT22;10742;51.816;8.662;2022-10-13T16:56:03;19.80;86.00
21169;DHT22;10742;51.816;8.662;2022-10-13T16:59:25;19.70;86.30
21169;DHT22;10742;51.816;8.662;2022-10-13T17:02:46;19.60;86.40
21169;DHT22;10742;51.816;8.662;2022-10-13T17:06:09;19.60;86.90
21169;DHT22;10742;51.816;8.662;2022-10-13T17:09:30;19.50;87.10
21169;DHT22;10742;51.816;8.662;2022-10-13T17:12:52;19.50;87.30
21169;DHT22;10742;51.816;8.662;2022-10-13T17:16:14;19.50;87.50
21169;DHT22;10742;51.816;8.662;2022-10-13T17:19:37;19.40;87.60
21169;DHT22;10742;51.816;8.662;2022-10-13T17:22:58;19.30;87.70
21169;DHT22;10742;51.816;8.662;2022-10-13T17:26:20;19.30;88.10
21169;DHT22;10742;51.816;8.662;2022-10-13T17:29:41;18.90;90.90
21169;DHT22;10742;51.816;8.662;2022-10-13T17:33:03;19.00;90.40
21169;DHT22;10742;51.816;8.662;2022-10-13T17:36:27;19.00;90.10
21169;DHT22;10742;51.816;8.662;2022-10-13T17:39:49;19.10;90.00
21169;DHT22;10742;51.816;8.662;2022-10-13T17:43:10;19.10;89.80
21169;DHT22;10742;51.816;8.662;2022-10-13T17:46:32;19.10;89.70
21169;DHT22;10742;51.816;8.662;2022-10-13T17:49:57;19.00;89.60
21169;DHT22;10742;51.816;8.662;2022-10-13T17:53:19;19.00;89.60
21169;DHT22;10742;51.816;8.662;2022-10-13T17:56:40;19.00;89.70
21169;DHT22;10742;51.816;8.662;2022-10-13T18:00:04;19.00;89.90
21169;DHT22;10742;51.816;8.662;2022-10-13T18:03:32;18.90;90.00
21169;DHT22;10742;51.816;8.662;2022-10-13T18:06:53;18.90;90.00
21169;DHT22;10742;51.816;8.662;2022-10-13T18:10:15;18.90;90.10
21169;DHT22;10742;51.816;8.662;2022-10-13T18:13:38;18.80;90.10
21169;DHT22;10742;51.816;8.662;2022-10-13T18:16:59;18.80;90.20
21169;DHT22;10742;51.816;8.662;2022-10-13T18:20:20;18.80;90.30
21169;DHT22;10742;51.816;8.662;2022-10-13T18:23:44;18.80;90.30
21169;DHT22;10742;51.816;8.662;2022-10-13T18:27:06;18.80;90.40
21169;DHT22;10742;51.816;8.662;2022-10-13T18:30:28;18.70;90.30
21169;DHT22;10742;51.816;8.662;2022-10-13T18:33:50;18.70;90.40
21169;DHT22;10742;51.816;8.662;2022-10-13T18:37:11;18.60;90.50
21169;DHT22;10742;51.816;8.662;2022-10-13T18:40:32;18.60;90.60
21169;DHT22;10742;51.816;8.662;2022-10-13T18:43:54;18.60;90.70
21169;DHT22;10742;51.816;8.662;2022-10-13T18:47:15;18.50;90.70
21169;DHT22;10742;51.816;8.662;2022-10-13T18:50:37;18.50;90.70
21169;DHT22;10742;51.816;8.662;2022-10-13T18:54:00;18.50;90.80
21169;DHT22;10742;51.816;8.662;2022-10-13T18:57:21;18.40;90.80
21169;DHT22;10742;51.816;8.662;2022-10-13T19:00:42;18.40;90.80
21169;DHT22;10742;51.816;8.662;2022-10-13T19:04:04;18.40;90.80
21169;DHT22;10742;51.816;8.662;2022-10-13T19:07:25;18.40;90.90
21169;DHT22;10742;51.816;8.662;2022-10-13T19:10:48;18.40;91.00
21169;DHT22;10742;51.816;8.662;2022-10-13T19:14:11;18.40;91.00
21169;DHT22;10742;51.816;8.662;2022-10-13T19:17:32;18.30;91.10
21169;DHT22;10742;51.816;8.662;2022-10-13T19:20:54;18.30;91.10
21169;DHT22;10742;51.816;8.662;2022-10-13T19:24:15;18.30;91.10
21169;DHT22;10742;51.816;8.662;2022-10-13T19:27:37;18.30;91.10
21169;DHT22;10742;51.816;8.662;2022-10-13T19:31:17;18.30;91.20
21169;DHT22;10742;51.816;8.662;2022-10-13T19:34:39;18.20;91.60
21169;DHT22;10742;51.816;8.662;2022-10-13T19:38:03;18.30;91.30
21169;DHT22;10742;51.816;8.662;2022-10-13T19:41:27;18.20;91.30
21169;DHT22;10742;51.816;8.662;2022-10-13T19:44:48;18.20;91.40
21169;DHT22;10742;51.816;8.662;2022-10-13T19:48:09;18.20;91.40
21169;DHT22;10742;51.816;8.662;2022-10-13T19:51:31;18.20;91.50
21169;DHT22;10742;51.816;8.662;2022-10-13T19:54:53;18.20;91.50
21169;DHT22;10742;51.816;8.662;2022-10-13T19:58:15;18.20;91.50
21169;DHT22;10742;51.816;8.662;2022-10-13T20:01:36;18.20;91.50
21169;DHT22;10742;51.816;8.662;2022-10-13T20:05:05;18.20;91.50
21169;DHT22;10742;51.816;8.662;2022-10-13T20:08:27;18.10;91.50
21169;DHT22;10742;51.816;8.662;2022-10-13T20:11:49;18.20;91.50
21169;DHT22;10742;51.816;8.662;2022-10-13T20:15:10;18.20;91.60
21169;DHT22;10742;51.816;8.662;2022-10-13T20:18:33;18.20;91.60
21169;DHT22;10742;51.816;8.662;2022-10-13T20:21:54;18.20;91.60
21169;DHT22;10742;51.816;8.662;2022-10-13T20:25:16;18.10;91.50
21169;DHT22;10742;51.816;8.662;2022-10-13T20:28:41;18.10;91.60
21169;DHT22;10742;51.816;8.662;2022-10-13T20:32:03;18.10;91.70
21169;DHT22;10742;51.816;8.662;2022-10-13T20:35:26;18.10;91.70
21169;DHT22;10742;51.816;8.662;2022-10-13T20:38:47;18.10;91.70
21169;DHT22;10742;51.816;8.662;2022-10-13T20:42:09;18.00;91.70
21169;DHT22;10742;51.816;8.662;2022-10-13T20:45:30;18.10;91.80
21169;DHT22;10742;51.816;8.662;2022-10-13T20:48:52;18.00;91.80
21169;DHT22;10742;51.816;8.662;2022-10-13T20:52:30;18.00;91.90
21169;DHT22;10742;51.816;8.662;2022-10-13T20:55:58;18.00;91.90
21169;DHT22;10742;51.816;8.662;2022-10-13T20:59:19;18.00;92.20
21169;DHT22;10742;51.816;8.662;2022-10-13T21:02:47;18.00;92.00
21169;DHT22;10742;51.816;8.662;2022-10-13T21:06:11;18.00;92.10
21169;DHT22;10742;51.816;8.662;2022-10-13T21:09:36;17.90;92.10
21169;DHT22;10742;51.816;8.662;2022-10-13T21:12:57;17.90;92.30
21169;DHT22;10742;51.816;8.662;2022-10-13T21:16:25;17.90;92.20